Terminal Aerodrome Forecast
Issued by NWS Twin Cities, MN

Home | Current Version | Previous Version | Graphics & Text | Print | Product List | Glossary On
Versions: 1 2 3 4 5 6 7 8 9 10 11 12 13 14 15 16 17 18
369
FTUS43 KMPX 161548 AAA
TAFSTC
TAF AMD
KSTC 161548Z 1616/1712 15003KT 4SM BR SCT011 BKN250
      TEMPO 1616/1618 BKN011
     FM161800 VRB03KT P6SM OVC010
     FM170800 33003KT 1/2SM FG BKN004=

USA.gov is the U.S. government's official web portal to all federal, state and local government web resources and services.